sensor_id;sensor_type;location;lat;lon;timestamp;P1;durP1;ratioP1;P2;durP2;ratioP2
64653;SDS011;51065;48.884;12.598;2023-06-22T00:01:57;9.43;;;4.03;;
64653;SDS011;51065;48.884;12.598;2023-06-22T00:04:23;9.95;;;4.03;;
64653;SDS011;51065;48.884;12.598;2023-06-22T00:06:49;13.27;;;5.22;;
64653;SDS011;51065;48.884;12.598;2023-06-22T00:09:15;9.40;;;4.38;;
64653;SDS011;51065;48.884;12.598;2023-06-22T00:11:40;14.40;;;5.03;;
64653;SDS011;51065;48.884;12.598;2023-06-22T00:14:06;16.25;;;6.03;;
64653;SDS011;51065;48.884;12.598;2023-06-22T00:16:32;13.38;;;5.38;;
64653;SDS011;51065;48.884;12.598;2023-06-22T00:18:58;15.25;;;5.72;;
64653;SDS011;51065;48.884;12.598;2023-06-22T00:21:25;20.20;;;7.05;;
64653;SDS011;51065;48.884;12.598;2023-06-22T00:23:54;17.05;;;5.65;;
64653;SDS011;51065;48.884;12.598;2023-06-22T00:26:20;16.17;;;6.65;;
64653;SDS011;51065;48.884;12.598;2023-06-22T00:28:46;13.27;;;5.15;;
64653;SDS011;51065;48.884;12.598;2023-06-22T00:31:12;17.20;;;6.20;;
64653;SDS011;51065;48.884;12.598;2023-06-22T00:33:38;13.30;;;4.93;;
64653;SDS011;51065;48.884;12.598;2023-06-22T00:36:04;11.82;;;5.60;;
64653;SDS011;51065;48.884;12.598;2023-06-22T00:38:31;13.73;;;5.00;;
64653;SDS011;51065;48.884;12.598;2023-06-22T00:40:56;12.50;;;5.13;;
64653;SDS011;51065;48.884;12.598;2023-06-22T00:43:22;11.73;;;4.60;;
64653;SDS011;51065;48.884;12.598;2023-06-22T00:45:47;13.77;;;5.72;;
64653;SDS011;51065;48.884;12.598;2023-06-22T00:48:13;13.60;;;4.78;;
64653;SDS011;51065;48.884;12.598;2023-06-22T00:50:40;15.18;;;5.50;;
64653;SDS011;51065;48.884;12.598;2023-06-22T00:53:06;10.98;;;4.65;;
64653;SDS011;51065;48.884;12.598;2023-06-22T00:55:33;11.88;;;4.38;;
64653;SDS011;51065;48.884;12.598;2023-06-22T01:00:33;10.05;;;4.05;;
64653;SDS011;51065;48.884;12.598;2023-06-22T01:02:59;7.68;;;3.60;;
64653;SDS011;51065;48.884;12.598;2023-06-22T01:05:24;12.30;;;4.93;;
64653;SDS011;51065;48.884;12.598;2023-06-22T01:13:25;9.25;;;3.67;;
64653;SDS011;51065;48.884;12.598;2023-06-22T01:16:06;9.02;;;4.03;;
64653;SDS011;51065;48.884;12.598;2023-06-22T01:18:38;8.13;;;3.92;;
64653;SDS011;51065;48.884;12.598;2023-06-22T01:21:07;7.90;;;3.83;;
64653;SDS011;51065;48.884;12.598;2023-06-22T01:26:56;9.38;;;3.92;;
64653;SDS011;51065;48.884;12.598;2023-06-22T01:29:34;9.65;;;4.13;;
64653;SDS011;51065;48.884;12.598;2023-06-22T01:32:02;8.25;;;3.60;;
64653;SDS011;51065;48.884;12.598;2023-06-22T01:34:30;7.50;;;3.90;;
64653;SDS011;51065;48.884;12.598;2023-06-22T01:36:57;9.45;;;3.92;;
64653;SDS011;51065;48.884;12.598;2023-06-22T01:39:24;10.75;;;3.78;;
64653;SDS011;51065;48.884;12.598;2023-06-22T01:41:50;8.55;;;4.05;;
64653;SDS011;51065;48.884;12.598;2023-06-22T01:44:16;12.50;;;4.03;;
64653;SDS011;51065;48.884;12.598;2023-06-22T01:46:42;10.60;;;4.10;;
64653;SDS011;51065;48.884;12.598;2023-06-22T01:49:09;9.35;;;4.07;;
64653;SDS011;51065;48.884;12.598;2023-06-22T01:51:35;11.43;;;4.03;;
64653;SDS011;51065;48.884;12.598;2023-06-22T01:54:01;10.80;;;3.72;;
64653;SDS011;51065;48.884;12.598;2023-06-22T01:56:27;10.52;;;4.70;;
64653;SDS011;51065;48.884;12.598;2023-06-22T01:59:05;10.80;;;4.18;;
64653;SDS011;51065;48.884;12.598;2023-06-22T02:01:42;9.35;;;4.35;;
64653;SDS011;51065;48.884;12.598;2023-06-22T02:04:22;10.18;;;4.00;;
64653;SDS011;51065;48.884;12.598;2023-06-22T02:06:54;8.55;;;3.42;;
64653;SDS011;51065;48.884;12.598;2023-06-22T02:09:23;8.80;;;4.38;;
64653;SDS011;51065;48.884;12.598;2023-06-22T02:11:50;13.20;;;4.45;;
64653;SDS011;51065;48.884;12.598;2023-06-22T02:14:20;8.25;;;3.78;;
64653;SDS011;51065;48.884;12.598;2023-06-22T02:16:46;8.00;;;3.45;;
64653;SDS011;51065;48.884;12.598;2023-06-22T02:19:12;9.55;;;4.00;;
64653;SDS011;51065;48.884;12.598;2023-06-22T02:21:40;8.50;;;4.05;;
64653;SDS011;51065;48.884;12.598;2023-06-22T02:24:06;8.65;;;3.75;;
64653;SDS011;51065;48.884;12.598;2023-06-22T02:26:31;9.70;;;4.00;;
64653;SDS011;51065;48.884;12.598;2023-06-22T02:28:58;9.25;;;4.38;;
64653;SDS011;51065;48.884;12.598;2023-06-22T02:31:23;9.75;;;4.32;;
64653;SDS011;51065;48.884;12.598;2023-06-22T02:33:55;10.05;;;4.00;;
64653;SDS011;51065;48.884;12.598;2023-06-22T02:36:24;9.82;;;3.92;;
64653;SDS011;51065;48.884;12.598;2023-06-22T02:38:51;11.65;;;4.45;;
64653;SDS011;51065;48.884;12.598;2023-06-22T02:41:17;10.77;;;4.00;;
64653;SDS011;51065;48.884;12.598;2023-06-22T02:43:44;9.80;;;4.15;;
64653;SDS011;51065;48.884;12.598;2023-06-22T02:46:13;9.70;;;4.30;;
64653;SDS011;51065;48.884;12.598;2023-06-22T02:48:39;12.05;;;3.97;;
64653;SDS011;51065;48.884;12.598;2023-06-22T02:51:05;8.02;;;3.40;;
64653;SDS011;51065;48.884;12.598;2023-06-22T02:53:31;9.00;;;4.15;;
64653;SDS011;51065;48.884;12.598;2023-06-22T02:55:57;8.93;;;3.65;;
64653;SDS011;51065;48.884;12.598;2023-06-22T02:58:23;9.73;;;3.88;;
64653;SDS011;51065;48.884;12.598;2023-06-22T03:00:49;9.50;;;3.75;;
64653;SDS011;51065;48.884;12.598;2023-06-22T03:03:17;8.88;;;3.55;;
64653;SDS011;51065;48.884;12.598;2023-06-22T03:05:43;10.70;;;4.07;;
64653;SDS011;51065;48.884;12.598;2023-06-22T03:08:09;8.88;;;3.80;;
64653;SDS011;51065;48.884;12.598;2023-06-22T03:10:35;8.05;;;3.92;;
64653;SDS011;51065;48.884;12.598;2023-06-22T03:13:00;8.93;;;4.10;;
64653;SDS011;51065;48.884;12.598;2023-06-22T03:15:26;11.23;;;3.63;;
64653;SDS011;51065;48.884;12.598;2023-06-22T03:17:54;9.45;;;4.07;;
64653;SDS011;51065;48.884;12.598;2023-06-22T03:20:19;8.23;;;3.97;;
64653;SDS011;51065;48.884;12.598;2023-06-22T03:22:45;10.23;;;4.07;;
64653;SDS011;51065;48.884;12.598;2023-06-22T03:25:11;9.52;;;3.72;;
64653;SDS011;51065;48.884;12.598;2023-06-22T03:27:40;9.32;;;4.00;;
64653;SDS011;51065;48.884;12.598;2023-06-22T03:30:07;11.93;;;4.45;;
64653;SDS011;51065;48.884;12.598;2023-06-22T03:32:34;8.30;;;3.50;;
64653;SDS011;51065;48.884;12.598;2023-06-22T03:34:59;13.70;;;4.55;;
64653;SDS011;51065;48.884;12.598;2023-06-22T03:37:28;9.32;;;4.03;;
64653;SDS011;51065;48.884;12.598;2023-06-22T03:39:54;8.18;;;3.60;;
64653;SDS011;51065;48.884;12.598;2023-06-22T03:42:20;8.65;;;3.80;;
64653;SDS011;51065;48.884;12.598;2023-06-22T03:44:45;9.82;;;4.13;;
64653;SDS011;51065;48.884;12.598;2023-06-22T03:47:11;12.05;;;4.57;;
64653;SDS011;51065;48.884;12.598;2023-06-22T03:49:37;9.15;;;4.38;;
64653;SDS011;51065;48.884;12.598;2023-06-22T03:52:03;12.55;;;4.50;;
64653;SDS011;51065;48.884;12.598;2023-06-22T03:54:29;9.50;;;3.88;;
64653;SDS011;51065;48.884;12.598;2023-06-22T03:56:55;9.48;;;4.43;;
64653;SDS011;51065;48.884;12.598;2023-06-22T03:59:21;10.15;;;4.55;;
64653;SDS011;51065;48.884;12.598;2023-06-22T04:01:47;11.98;;;4.10;;
64653;SDS011;51065;48.884;12.598;2023-06-22T04:04:13;10.52;;;4.15;;
64653;SDS011;51065;48.884;12.598;2023-06-22T04:06:38;10.45;;;4.85;;
64653;SDS011;51065;48.884;12.598;2023-06-22T04:09:05;10.27;;;4.35;;
64653;SDS011;51065;48.884;12.598;2023-06-22T04:11:31;9.23;;;4.22;;
64653;SDS011;51065;48.884;12.598;2023-06-22T04:13:56;8.10;;;3.90;;
64653;SDS011;51065;48.884;12.598;2023-06-22T04:16:22;8.80;;;4.35;;
64653;SDS011;51065;48.884;12.598;2023-06-22T04:18:47;8.80;;;3.75;;
64653;SDS011;51065;48.884;12.598;2023-06-22T04:21:13;13.48;;;4.85;;
64653;SDS011;51065;48.884;12.598;2023-06-22T04:23:39;7.45;;;3.88;;
64653;SDS011;51065;48.884;12.598;2023-06-22T04:26:04;11.88;;;4.88;;
64653;SDS011;51065;48.884;12.598;2023-06-22T04:28:30;10.98;;;4.75;;
64653;SDS011;51065;48.884;12.598;2023-06-22T04:30:59;10.68;;;4.93;;
64653;SDS011;51065;48.884;12.598;2023-06-22T04:33:28;12.48;;;4.43;;
64653;SDS011;51065;48.884;12.598;2023-06-22T04:35:57;12.35;;;4.32;;
64653;SDS011;51065;48.884;12.598;2023-06-22T04:38:26;10.50;;;4.18;;
64653;SDS011;51065;48.884;12.598;2023-06-22T04:40:51;9.48;;;4.18;;
64653;SDS011;51065;48.884;12.598;2023-06-22T04:43:18;8.73;;;4.13;;
64653;SDS011;51065;48.884;12.598;2023-06-22T04:45:44;8.50;;;4.00;;
64653;SDS011;51065;48.884;12.598;2023-06-22T04:48:09;13.52;;;4.10;;
64653;SDS011;51065;48.884;12.598;2023-06-22T04:50:40;8.13;;;3.50;;
64653;SDS011;51065;48.884;12.598;2023-06-22T04:53:06;8.60;;;4.45;;
64653;SDS011;51065;48.884;12.598;2023-06-22T04:55:34;9.77;;;3.40;;
64653;SDS011;51065;48.884;12.598;2023-06-22T04:58:02;9.75;;;3.90;;
64653;SDS011;51065;48.884;12.598;2023-06-22T05:00:29;8.13;;;3.45;;
64653;SDS011;51065;48.884;12.598;2023-06-22T05:02:55;8.18;;;3.53;;
64653;SDS011;51065;48.884;12.598;2023-06-22T05:05:23;6.07;;;3.13;;
64653;SDS011;51065;48.884;12.598;2023-06-22T05:07:49;6.88;;;3.45;;
64653;SDS011;51065;48.884;12.598;2023-06-22T05:10:17;9.43;;;3.55;;
64653;SDS011;51065;48.884;12.598;2023-06-22T05:12:44;8.73;;;3.38;;
64653;SDS011;51065;48.884;12.598;2023-06-22T05:15:09;7.65;;;3.40;;
64653;SDS011;51065;48.884;12.598;2023-06-22T05:17:35;7.40;;;3.08;;
64653;SDS011;51065;48.884;12.598;2023-06-22T05:20:01;6.10;;;2.95;;
64653;SDS011;51065;48.884;12.598;2023-06-22T05:22:31;10.82;;;3.58;;
64653;SDS011;51065;48.884;12.598;2023-06-22T05:24:56;10.60;;;3.95;;
64653;SDS011;51065;48.884;12.598;2023-06-22T05:27:22;8.77;;;3.78;;
64653;SDS011;51065;48.884;12.598;2023-06-22T05:29:47;7.70;;;3.75;;
64653;SDS011;51065;48.884;12.598;2023-06-22T05:32:13;10.35;;;3.70;;
64653;SDS011;51065;48.884;12.598;2023-06-22T05:34:38;7.93;;;3.67;;
64653;SDS011;51065;48.884;12.598;2023-06-22T05:37:05;9.25;;;4.18;;
64653;SDS011;51065;48.884;12.598;2023-06-22T05:39:31;7.35;;;3.70;;
64653;SDS011;51065;48.884;12.598;2023-06-22T05:41:56;8.77;;;3.60;;
64653;SDS011;51065;48.884;12.598;2023-06-22T05:44:22;9.57;;;3.30;;
64653;SDS011;51065;48.884;12.598;2023-06-22T05:46:48;6.72;;;3.70;;
64653;SDS011;51065;48.884;12.598;2023-06-22T05:49:13;8.88;;;3.80;;
64653;SDS011;51065;48.884;12.598;2023-06-22T05:51:39;9.82;;;3.58;;
64653;SDS011;51065;48.884;12.598;2023-06-22T05:54:05;9.30;;;3.63;;
64653;SDS011;51065;48.884;12.598;2023-06-22T05:56:33;10.43;;;3.75;;
64653;SDS011;51065;48.884;12.598;2023-06-22T05:58:58;8.23;;;3.33;;
64653;SDS011;51065;48.884;12.598;2023-06-22T06:01:24;8.43;;;3.58;;
64653;SDS011;51065;48.884;12.598;2023-06-22T06:03:50;7.82;;;3.47;;
64653;SDS011;51065;48.884;12.598;2023-06-22T06:06:17;8.00;;;3.70;;
64653;SDS011;51065;48.884;12.598;2023-06-22T06:08:43;8.23;;;3.78;;
64653;SDS011;51065;48.884;12.598;2023-06-22T06:11:09;6.40;;;3.42;;
64653;SDS011;51065;48.884;12.598;2023-06-22T06:13:34;8.20;;;3.10;;
64653;SDS011;51065;48.884;12.598;2023-06-22T06:16:00;10.07;;;3.03;;
64653;SDS011;51065;48.884;12.598;2023-06-22T06:18:26;8.10;;;3.42;;
64653;SDS011;51065;48.884;12.598;2023-06-22T06:20:51;5.75;;;3.13;;
64653;SDS011;51065;48.884;12.598;2023-06-22T06:23:17;6.43;;;3.30;;
64653;SDS011;51065;48.884;12.598;2023-06-22T06:25:42;6.93;;;3.55;;
64653;SDS011;51065;48.884;12.598;2023-06-22T06:28:08;7.38;;;3.17;;
64653;SDS011;51065;48.884;12.598;2023-06-22T06:30:33;5.35;;;3.03;;
64653;SDS011;51065;48.884;12.598;2023-06-22T06:33:02;5.80;;;2.95;;
64653;SDS011;51065;48.884;12.598;2023-06-22T06:35:27;6.53;;;2.65;;
64653;SDS011;51065;48.884;12.598;2023-06-22T06:37:53;5.93;;;3.05;;
64653;SDS011;51065;48.884;12.598;2023-06-22T06:40:19;7.15;;;3.33;;
64653;SDS011;51065;48.884;12.598;2023-06-22T06:42:47;4.95;;;2.65;;
64653;SDS011;51065;48.884;12.598;2023-06-22T06:47:47;6.57;;;2.67;;
64653;SDS011;51065;48.884;12.598;2023-06-22T06:50:13;6.32;;;2.70;;
64653;SDS011;51065;48.884;12.598;2023-06-22T06:52:39;9.07;;;3.35;;
64653;SDS011;51065;48.884;12.598;2023-06-22T06:55:04;7.13;;;3.00;;
64653;SDS011;51065;48.884;12.598;2023-06-22T06:57:34;5.95;;;3.10;;
64653;SDS011;51065;48.884;12.598;2023-06-22T07:00:00;6.72;;;3.00;;
64653;SDS011;51065;48.884;12.598;2023-06-22T07:02:25;6.50;;;2.92;;
64653;SDS011;51065;48.884;12.598;2023-06-22T07:04:53;6.38;;;3.10;;
64653;SDS011;51065;48.884;12.598;2023-06-22T07:07:20;7.97;;;2.80;;
64653;SDS011;51065;48.884;12.598;2023-06-22T07:09:46;7.22;;;3.00;;
64653;SDS011;51065;48.884;12.598;2023-06-22T07:12:12;6.93;;;2.78;;
64653;SDS011;51065;48.884;12.598;2023-06-22T07:14:37;6.60;;;3.25;;
64653;SDS011;51065;48.884;12.598;2023-06-22T07:17:03;4.68;;;2.92;;
64653;SDS011;51065;48.884;12.598;2023-06-22T07:19:29;7.63;;;3.10;;
64653;SDS011;51065;48.884;12.598;2023-06-22T07:21:56;7.05;;;3.00;;
64653;SDS011;51065;48.884;12.598;2023-06-22T07:24:22;7.47;;;3.28;;
64653;SDS011;51065;48.884;12.598;2023-06-22T07:26:48;4.97;;;2.70;;
64653;SDS011;51065;48.884;12.598;2023-06-22T07:29:15;6.15;;;3.00;;
64653;SDS011;51065;48.884;12.598;2023-06-22T07:31:45;6.05;;;3.05;;
64653;SDS011;51065;48.884;12.598;2023-06-22T07:34:11;6.20;;;3.38;;
64653;SDS011;51065;48.884;12.598;2023-06-22T07:36:40;6.47;;;2.58;;
64653;SDS011;51065;48.884;12.598;2023-06-22T07:39:06;6.45;;;3.03;;
64653;SDS011;51065;48.884;12.598;2023-06-22T07:41:31;5.53;;;2.83;;
64653;SDS011;51065;48.884;12.598;2023-06-22T07:43:57;6.45;;;3.03;;
64653;SDS011;51065;48.884;12.598;2023-06-22T07:46:23;6.07;;;2.85;;
64653;SDS011;51065;48.884;12.598;2023-06-22T07:48:48;7.57;;;2.90;;
64653;SDS011;51065;48.884;12.598;2023-06-22T07:51:14;6.07;;;2.70;;
64653;SDS011;51065;48.884;12.598;2023-06-22T07:53:40;4.78;;;3.15;;
64653;SDS011;51065;48.884;12.598;2023-06-22T07:56:06;6.53;;;2.85;;
64653;SDS011;51065;48.884;12.598;2023-06-22T07:58:32;7.18;;;2.80;;
64653;SDS011;51065;48.884;12.598;2023-06-22T08:00:58;5.90;;;2.63;;
64653;SDS011;51065;48.884;12.598;2023-06-22T08:03:24;6.90;;;3.22;;
64653;SDS011;51065;48.884;12.598;2023-06-22T08:05:49;5.50;;;2.90;;
64653;SDS011;51065;48.884;12.598;2023-06-22T08:08:15;7.35;;;3.20;;
64653;SDS011;51065;48.884;12.598;2023-06-22T08:10:41;7.70;;;3.10;;
64653;SDS011;51065;48.884;12.598;2023-06-22T08:13:07;6.07;;;3.08;;
64653;SDS011;51065;48.884;12.598;2023-06-22T08:15:33;7.55;;;3.20;;
64653;SDS011;51065;48.884;12.598;2023-06-22T08:17:59;6.40;;;3.00;;
64653;SDS011;51065;48.884;12.598;2023-06-22T08:20:25;9.73;;;3.38;;
64653;SDS011;51065;48.884;12.598;2023-06-22T08:22:53;7.93;;;2.90;;
64653;SDS011;51065;48.884;12.598;2023-06-22T08:25:19;6.75;;;3.60;;
64653;SDS011;51065;48.884;12.598;2023-06-22T08:27:46;7.97;;;3.15;;
64653;SDS011;51065;48.884;12.598;2023-06-22T08:30:13;11.02;;;3.55;;
64653;SDS011;51065;48.884;12.598;2023-06-22T08:32:39;10.52;;;3.85;;
64653;SDS011;51065;48.884;12.598;2023-06-22T08:35:05;7.75;;;3.38;;
64653;SDS011;51065;48.884;12.598;2023-06-22T08:37:33;5.63;;;3.33;;
64653;SDS011;51065;48.884;12.598;2023-06-22T08:40:00;8.23;;;3.70;;
64653;SDS011;51065;48.884;12.598;2023-06-22T08:42:29;7.13;;;3.40;;
64653;SDS011;51065;48.884;12.598;2023-06-22T08:44:55;6.32;;;3.35;;
64653;SDS011;51065;48.884;12.598;2023-06-22T08:47:20;7.88;;;3.55;;
64653;SDS011;51065;48.884;12.598;2023-06-22T08:49:46;7.95;;;3.95;;
64653;SDS011;51065;48.884;12.598;2023-06-22T08:52:12;9.57;;;3.83;;
64653;SDS011;51065;48.884;12.598;2023-06-22T08:54:37;6.85;;;3.45;;
64653;SDS011;51065;48.884;12.598;2023-06-22T08:57:03;9.00;;;3.50;;
64653;SDS011;51065;48.884;12.598;2023-06-22T08:59:29;7.20;;;3.53;;
64653;SDS011;51065;48.884;12.598;2023-06-22T09:01:54;8.07;;;3.85;;
64653;SDS011;51065;48.884;12.598;2023-06-22T09:04:20;6.40;;;3.35;;
64653;SDS011;51065;48.884;12.598;2023-06-22T09:06:48;9.80;;;3.95;;
64653;SDS011;51065;48.884;12.598;2023-06-22T09:09:15;11.50;;;4.47;;
64653;SDS011;51065;48.884;12.598;2023-06-22T09:11:41;7.57;;;3.22;;
64653;SDS011;51065;48.884;12.598;2023-06-22T09:14:07;7.15;;;3.38;;
64653;SDS011;51065;48.884;12.598;2023-06-22T09:16:33;8.43;;;4.05;;
64653;SDS011;51065;48.884;12.598;2023-06-22T09:18:59;9.63;;;4.10;;
64653;SDS011;51065;48.884;12.598;2023-06-22T09:21:25;7.63;;;3.47;;
64653;SDS011;51065;48.884;12.598;2023-06-22T09:23:50;12.90;;;3.90;;
64653;SDS011;51065;48.884;12.598;2023-06-22T09:26:17;11.85;;;4.22;;
64653;SDS011;51065;48.884;12.598;2023-06-22T09:28:43;8.63;;;3.63;;
64653;SDS011;51065;48.884;12.598;2023-06-22T09:31:09;7.22;;;3.80;;
64653;SDS011;51065;48.884;12.598;2023-06-22T09:33:35;9.38;;;3.78;;
64653;SDS011;51065;48.884;12.598;2023-06-22T09:36:01;8.50;;;3.92;;
64653;SDS011;51065;48.884;12.598;2023-06-22T09:38:27;7.10;;;4.07;;
64653;SDS011;51065;48.884;12.598;2023-06-22T09:40:52;9.68;;;3.85;;
64653;SDS011;51065;48.884;12.598;2023-06-22T09:43:18;7.32;;;3.55;;
64653;SDS011;51065;48.884;12.598;2023-06-22T09:45:43;6.95;;;3.58;;
64653;SDS011;51065;48.884;12.598;2023-06-22T09:48:09;11.98;;;4.30;;
64653;SDS011;51065;48.884;12.598;2023-06-22T09:50:37;7.67;;;3.93;;
64653;SDS011;51065;48.884;12.598;2023-06-22T09:53:03;8.75;;;3.92;;
64653;SDS011;51065;48.884;12.598;2023-06-22T09:55:28;7.60;;;3.70;;
64653;SDS011;51065;48.884;12.598;2023-06-22T09:57:54;6.68;;;3.70;;
64653;SDS011;51065;48.884;12.598;2023-06-22T10:00:20;5.85;;;3.55;;
64653;SDS011;51065;48.884;12.598;2023-06-22T10:02:47;6.85;;;4.15;;
64653;SDS011;51065;48.884;12.598;2023-06-22T10:05:12;8.80;;;3.28;;
64653;SDS011;51065;48.884;12.598;2023-06-22T10:07:38;12.95;;;4.00;;
64653;SDS011;51065;48.884;12.598;2023-06-22T10:10:07;9.18;;;3.60;;
64653;SDS011;51065;48.884;12.598;2023-06-22T10:12:34;9.00;;;3.90;;
64653;SDS011;51065;48.884;12.598;2023-06-22T10:14:59;10.98;;;3.75;;
64653;SDS011;51065;48.884;12.598;2023-06-22T10:17:25;6.93;;;3.95;;
64653;SDS011;51065;48.884;12.598;2023-06-22T10:19:50;11.10;;;4.00;;
64653;SDS011;51065;48.884;12.598;2023-06-22T10:22:16;8.40;;;3.70;;
64653;SDS011;51065;48.884;12.598;2023-06-22T10:24:41;6.82;;;3.55;;
64653;SDS011;51065;48.884;12.598;2023-06-22T10:27:11;9.90;;;4.18;;
64653;SDS011;51065;48.884;12.598;2023-06-22T10:29:37;9.52;;;3.80;;
64653;SDS011;51065;48.884;12.598;2023-06-22T10:32:02;7.05;;;3.47;;
64653;SDS011;51065;48.884;12.598;2023-06-22T10:34:28;8.27;;;3.90;;
64653;SDS011;51065;48.884;12.598;2023-06-22T10:36:54;10.40;;;3.70;;
64653;SDS011;51065;48.884;12.598;2023-06-22T10:39:19;10.23;;;3.75;;
64653;SDS011;51065;48.884;12.598;2023-06-22T10:41:45;8.20;;;3.88;;
64653;SDS011;51065;48.884;12.598;2023-06-22T10:44:11;8.95;;;4.07;;
64653;SDS011;51065;48.884;12.598;2023-06-22T10:46:37;7.38;;;3.67;;
64653;SDS011;51065;48.884;12.598;2023-06-22T10:49:03;8.05;;;3.90;;
64653;SDS011;51065;48.884;12.598;2023-06-22T10:51:28;9.23;;;4.03;;
64653;SDS011;51065;48.884;12.598;2023-06-22T10:53:54;9.20;;;3.97;;
64653;SDS011;51065;48.884;12.598;2023-06-22T10:56:19;7.65;;;4.05;;
64653;SDS011;51065;48.884;12.598;2023-06-22T10:58:45;8.98;;;4.00;;
64653;SDS011;51065;48.884;12.598;2023-06-22T11:01:11;7.65;;;3.95;;
64653;SDS011;51065;48.884;12.598;2023-06-22T11:03:37;8.20;;;3.55;;
64653;SDS011;51065;48.884;12.598;2023-06-22T11:06:02;7.05;;;3.25;;
64653;SDS011;51065;48.884;12.598;2023-06-22T11:08:28;7.68;;;3.47;;
64653;SDS011;51065;48.884;12.598;2023-06-22T11:10:53;9.23;;;4.03;;
64653;SDS011;51065;48.884;12.598;2023-06-22T11:13:19;10.68;;;3.88;;
64653;SDS011;51065;48.884;12.598;2023-06-22T11:15:44;9.23;;;4.10;;
64653;SDS011;51065;48.884;12.598;2023-06-22T11:18:10;6.78;;;3.63;;
64653;SDS011;51065;48.884;12.598;2023-06-22T11:20:36;9.50;;;3.85;;
64653;SDS011;51065;48.884;12.598;2023-06-22T11:23:06;14.05;;;4.07;;
64653;SDS011;51065;48.884;12.598;2023-06-22T11:25:32;11.00;;;3.97;;
64653;SDS011;51065;48.884;12.598;2023-06-22T11:28:01;6.85;;;3.53;;
64653;SDS011;51065;48.884;12.598;2023-06-22T11:30:27;10.32;;;3.88;;
64653;SDS011;51065;48.884;12.598;2023-06-22T11:32:53;10.43;;;3.90;;
64653;SDS011;51065;48.884;12.598;2023-06-22T11:35:18;9.90;;;3.47;;
64653;SDS011;51065;48.884;12.598;2023-06-22T11:37:44;7.32;;;3.35;;
64653;SDS011;51065;48.884;12.598;2023-06-22T11:40:10;8.88;;;3.70;;
64653;SDS011;51065;48.884;12.598;2023-06-22T11:42:36;8.52;;;3.35;;
64653;SDS011;51065;48.884;12.598;2023-06-22T11:45:02;8.13;;;3.47;;
64653;SDS011;51065;48.884;12.598;2023-06-22T11:47:29;10.90;;;3.40;;
64653;SDS011;51065;48.884;12.598;2023-06-22T11:49:55;7.70;;;3.60;;
64653;SDS011;51065;48.884;12.598;2023-06-22T11:52:21;11.77;;;4.10;;
64653;SDS011;51065;48.884;12.598;2023-06-22T11:54:46;11.23;;;3.67;;
64653;SDS011;51065;48.884;12.598;2023-06-22T11:57:12;10.23;;;3.38;;
64653;SDS011;51065;48.884;12.598;2023-06-22T11:59:37;9.68;;;3.28;;
64653;SDS011;51065;48.884;12.598;2023-06-22T12:02:03;7.97;;;3.33;;
64653;SDS011;51065;48.884;12.598;2023-06-22T12:04:30;10.55;;;3.80;;
64653;SDS011;51065;48.884;12.598;2023-06-22T12:06:56;10.18;;;3.53;;
64653;SDS011;51065;48.884;12.598;2023-06-22T12:09:21;7.85;;;3.60;;
64653;SDS011;51065;48.884;12.598;2023-06-22T12:11:47;8.13;;;3.15;;
64653;SDS011;51065;48.884;12.598;2023-06-22T12:14:12;7.70;;;3.10;;
64653;SDS011;51065;48.884;12.598;2023-06-22T12:16:38;8.75;;;3.08;;
64653;SDS011;51065;48.884;12.598;2023-06-22T12:19:04;7.05;;;3.30;;
64653;SDS011;51065;48.884;12.598;2023-06-22T12:21:29;11.40;;;3.78;;
64653;SDS011;51065;48.884;12.598;2023-06-22T12:23:54;8.18;;;3.50;;
64653;SDS011;51065;48.884;12.598;2023-06-22T12:26:20;9.02;;;3.22;;
64653;SDS011;51065;48.884;12.598;2023-06-22T12:28:47;9.15;;;3.28;;
64653;SDS011;51065;48.884;12.598;2023-06-22T12:31:12;9.45;;;3.60;;
64653;SDS011;51065;48.884;12.598;2023-06-22T12:33:39;10.40;;;3.78;;
64653;SDS011;51065;48.884;12.598;2023-06-22T12:36:04;7.70;;;3.30;;
64653;SDS011;51065;48.884;12.598;2023-06-22T12:38:30;7.30;;;3.20;;
64653;SDS011;51065;48.884;12.598;2023-06-22T12:40:56;9.10;;;3.20;;
64653;SDS011;51065;48.884;12.598;2023-06-22T12:43:21;10.35;;;3.13;;
64653;SDS011;51065;48.884;12.598;2023-06-22T12:45:47;9.40;;;3.30;;
64653;SDS011;51065;48.884;12.598;2023-06-22T12:48:12;10.00;;;3.17;;
64653;SDS011;51065;48.884;12.598;2023-06-22T12:50:38;10.93;;;3.53;;
64653;SDS011;51065;48.884;12.598;2023-06-22T12:53:04;7.20;;;3.20;;
64653;SDS011;51065;48.884;12.598;2023-06-22T12:55:31;6.22;;;2.95;;
64653;SDS011;51065;48.884;12.598;2023-06-22T12:57:57;7.50;;;3.15;;
64653;SDS011;51065;48.884;12.598;2023-06-22T13:00:22;10.32;;;3.30;;
64653;SDS011;51065;48.884;12.598;2023-06-22T13:02:48;10.52;;;3.10;;
64653;SDS011;51065;48.884;12.598;2023-06-22T13:05:14;11.77;;;3.17;;
64653;SDS011;51065;48.884;12.598;2023-06-22T13:07:39;6.45;;;3.10;;
64653;SDS011;51065;48.884;12.598;2023-06-22T13:10:06;8.23;;;3.20;;
64653;SDS011;51065;48.884;12.598;2023-06-22T13:12:32;7.53;;;3.22;;
64653;SDS011;51065;48.884;12.598;2023-06-22T13:14:58;8.02;;;3.13;;
64653;SDS011;51065;48.884;12.598;2023-06-22T13:17:23;8.63;;;3.35;;
64653;SDS011;51065;48.884;12.598;2023-06-22T13:19:49;8.23;;;3.45;;
64653;SDS011;51065;48.884;12.598;2023-06-22T13:24:56;10.80;;;3.95;;
64653;SDS011;51065;48.884;12.598;2023-06-22T13:27:22;12.02;;;3.85;;
64653;SDS011;51065;48.884;12.598;2023-06-22T13:29:48;11.07;;;3.35;;
64653;SDS011;51065;48.884;12.598;2023-06-22T13:32:14;15.82;;;3.83;;
64653;SDS011;51065;48.884;12.598;2023-06-22T13:34:39;8.93;;;3.47;;
64653;SDS011;51065;48.884;12.598;2023-06-22T13:37:05;9.23;;;3.50;;
64653;SDS011;51065;48.884;12.598;2023-06-22T13:39:31;10.18;;;3.50;;
64653;SDS011;51065;48.884;12.598;2023-06-22T13:41:57;7.35;;;3.58;;
64653;SDS011;51065;48.884;12.598;2023-06-22T13:44:23;7.10;;;3.15;;
64653;SDS011;51065;48.884;12.598;2023-06-22T13:46:52;7.85;;;3.50;;
64653;SDS011;51065;48.884;12.598;2023-06-22T13:49:18;9.05;;;3.17;;
64653;SDS011;51065;48.884;12.598;2023-06-22T13:51:43;9.23;;;3.33;;
64653;SDS011;51065;48.884;12.598;2023-06-22T13:54:09;9.48;;;3.50;;
64653;SDS011;51065;48.884;12.598;2023-06-22T13:56:35;5.18;;;3.05;;
64653;SDS011;51065;48.884;12.598;2023-06-22T13:59:00;8.95;;;3.28;;
64653;SDS011;51065;48.884;12.598;2023-06-22T14:01:26;10.40;;;3.60;;
64653;SDS011;51065;48.884;12.598;2023-06-22T14:03:51;11.63;;;3.67;;
64653;SDS011;51065;48.884;12.598;2023-06-22T14:06:17;8.25;;;3.38;;
64653;SDS011;51065;48.884;12.598;2023-06-22T14:08:43;12.90;;;3.55;;
64653;SDS011;51065;48.884;12.598;2023-06-22T14:11:08;9.35;;;3.55;;
64653;SDS011;51065;48.884;12.598;2023-06-22T14:13:34;10.00;;;3.33;;
64653;SDS011;51065;48.884;12.598;2023-06-22T14:16:00;10.10;;;3.35;;
64653;SDS011;51065;48.884;12.598;2023-06-22T14:18:26;8.43;;;3.20;;
64653;SDS011;51065;48.884;12.598;2023-06-22T14:20:52;10.60;;;3.58;;
64653;SDS011;51065;48.884;12.598;2023-06-22T14:23:17;10.80;;;3.25;;
64653;SDS011;51065;48.884;12.598;2023-06-22T14:25:43;5.43;;;3.17;;
64653;SDS011;51065;48.884;12.598;2023-06-22T14:28:08;6.57;;;3.25;;
64653;SDS011;51065;48.884;12.598;2023-06-22T14:30:34;9.50;;;3.10;;
64653;SDS011;51065;48.884;12.598;2023-06-22T14:32:59;12.18;;;3.45;;
64653;SDS011;51065;48.884;12.598;2023-06-22T14:35:25;12.40;;;4.00;;
64653;SDS011;51065;48.884;12.598;2023-06-22T14:37:51;10.15;;;3.30;;
64653;SDS011;51065;48.884;12.598;2023-06-22T14:40:16;7.93;;;3.30;;
64653;SDS011;51065;48.884;12.598;2023-06-22T14:42:42;8.25;;;3.00;;